Time;durP1;ratioP1;P1;durP2;ratioP2;P2;SDS_P1;SDS_P2;PMS_P1;PMS_P2;Temp;Humidity;BMP_temperature;BMP_pressure;BME280_temperature;BME280_humidity;BME280_pressure;Samples;Min_cycle;Max_cycle;Signal;HPM_P1;HPM_P2
2022/03/08 00:01:15;;;;;;;18.98;9.57;;;;;;;-5.52;66.03;97932.34;5027206;28;20099;-65
2022/03/08 00:03:42;;;;;;;18.80;10.25;;;;;;;-5.67;66.92;97930.09;5033786;28;20654;-65
2022/03/08 00:06:10;;;;;;;18.73;9.77;;;;;;;-5.73;67.56;97925.34;5021373;28;20041;-64
2022/03/08 00:08:40;;;;;;;15.52;9.73;;;;;;;-5.68;66.13;97925.78;5027032;28;20575;-64
2022/03/08 00:11:07;;;;;;;19.73;10.60;;;;;;;-6.12;67.89;97931.31;5026795;28;20042;-63
2022/03/08 00:13:34;;;;;;;19.85;10.73;;;;;;;-6.51;69.63;97939.03;5027697;28;20053;-65
2022/03/08 00:16:01;;;;;;;22.35;9.95;;;;;;;-6.46;69.70;97937.69;5025570;28;20048;-62
2022/03/08 00:18:28;;;;;;;19.92;9.98;;;;;;;-6.50;69.62;97931.00;5026708;28;20595;-63
2022/03/08 00:20:55;;;;;;;18.08;9.85;;;;;;;-6.63;70.03;97935.63;5027308;28;20544;-63
2022/03/08 00:23:22;;;;;;;20.35;9.73;;;;;;;-6.71;70.42;97934.47;5026337;28;20042;-64
2022/03/08 00:25:51;;;;;;;19.17;10.35;;;;;;;-6.55;69.97;97943.72;5027084;28;20056;-64
2022/03/08 00:28:18;;;;;;;18.98;9.45;;;;;;;-6.60;70.42;97946.75;5025565;28;20053;-65
2022/03/08 00:30:44;;;;;;;20.77;11.02;;;;;;;-6.68;70.56;97949.16;5024400;28;20040;-64
2022/03/08 00:33:12;;;;;;;19.38;9.45;;;;;;;-6.68;70.08;97944.75;5038814;28;20056;-63
2022/03/08 00:35:38;;;;;;;19.85;10.50;;;;;;;-6.62;70.41;97953.94;5028902;28;20642;-63
2022/03/08 00:38:05;;;;;;;20.15;9.48;;;;;;;-6.76;70.71;97952.44;5035078;28;20057;-64
2022/03/08 00:40:32;;;;;;;18.90;10.07;;;;;;;-6.83;71.29;97946.00;5023731;28;20052;-63
2022/03/08 00:42:59;;;;;;;19.65;10.20;;;;;;;-6.75;70.77;97954.13;5025708;28;20045;-62
2022/03/08 00:45:26;;;;;;;24.00;12.13;;;;;;;-6.80;70.74;97953.66;5027749;28;20042;-63
2022/03/08 00:47:52;;;;;;;19.33;9.70;;;;;;;-6.93;71.00;97951.22;5026951;28;20532;-66
2022/03/08 00:50:23;;;;;;;17.02;8.13;;;;;;;-6.97;71.98;97944.53;5025404;28;20111;-63
2022/03/08 00:52:52;;;;;;;23.00;11.18;;;;;;;-6.62;70.49;97946.03;5027621;28;20053;-64
2022/03/08 00:55:20;;;;;;;17.42;9.60;;;;;;;-6.63;70.14;97944.38;5023647;28;20100;-64
2022/03/08 00:57:49;;;;;;;18.08;9.70;;;;;;;-6.79;71.16;97947.44;5032781;28;20577;-64
2022/03/08 01:00:19;;;;;;;22.40;10.27;;;;;;;-6.86;70.73;97943.66;5022602;28;20065;-65
2022/03/08 01:02:46;;;;;;;16.75;9.52;;;;;;;-7.00;71.95;97947.41;5026448;28;20044;-63
2022/03/08 01:05:13;;;;;;;20.95;10.30;;;;;;;-7.05;71.59;97943.38;5022557;28;20813;-66
2022/03/08 01:07:40;;;;;;;20.08;11.00;;;;;;;-7.19;71.65;97946.31;5024252;28;20068;-64
2022/03/08 01:10:10;;;;;;;16.33;9.55;;;;;;;-7.39;72.94;97954.00;5025224;28;20425;-67
2022/03/08 01:12:36;;;;;;;23.40;11.00;;;;;;;-7.37;73.13;97951.25;5022600;28;20041;-64
2022/03/08 01:15:05;;;;;;;19.25;10.80;;;;;;;-7.30;73.84;97944.50;5032037;28;20041;-65
2022/03/08 01:17:33;;;;;;;21.15;10.50;;;;;;;-7.33;72.48;97936.88;5026647;28;20194;-63
2022/03/08 01:20:00;;;;;;;20.98;10.45;;;;;;;-7.36;72.97;97939.75;5029324;28;20096;-64
2022/03/08 01:22:26;;;;;;;19.98;9.90;;;;;;;-7.28;71.84;97934.72;5024670;28;20037;-63
2022/03/08 01:24:53;;;;;;;19.38;10.60;;;;;;;-7.40;73.49;97936.56;5026461;28;20072;-65
2022/03/08 01:27:19;;;;;;;23.23;11.20;;;;;;;-7.40;72.58;97936.56;5026798;28;20067;-64
2022/03/08 01:29:46;;;;;;;21.20;10.88;;;;;;;-7.43;72.96;97934.16;5024671;28;20057;-63
2022/03/08 01:32:13;;;;;;;22.75;12.43;;;;;;;-7.36;72.66;97929.22;5019521;28;20545;-64
2022/03/08 01:34:39;;;;;;;21.95;11.50;;;;;;;-7.32;72.26;97931.50;5014363;28;20452;-63
2022/03/08 01:37:06;;;;;;;21.40;10.98;;;;;;;-7.37;72.44;97924.94;5025183;28;20041;-62
2022/03/08 01:39:34;;;;;;;24.95;12.60;;;;;;;-7.38;72.33;97923.28;5027810;28;20045;-64
2022/03/08 01:42:11;;;;;;;23.35;11.98;;;;;;;-7.61;72.94;97921.53;5020044;28;20050;-63
2022/03/08 01:44:44;;;;;;;21.48;10.27;;;;;;;-7.60;73.26;97914.44;5016245;28;20042;-66
2022/03/08 01:47:20;;;;;;;29.63;14.25;;;;;;;-7.56;73.17;97915.88;5021364;28;20045;-64
2022/03/08 01:49:49;;;;;;;23.25;11.90;;;;;;;-7.47;72.64;97915.16;5025247;28;20044;-65
2022/03/08 01:52:19;;;;;;;23.48;13.20;;;;;;;-7.23;72.63;97910.66;5033487;28;20037;-65
2022/03/08 01:54:46;;;;;;;25.40;12.40;;;;;;;-7.52;72.32;97904.16;5045065;28;20033;-65
2022/03/08 01:57:13;;;;;;;19.67;10.75;;;;;;;-7.61;72.48;97900.47;5026764;28;20091;-65
2022/03/08 01:59:40;;;;;;;19.73;9.70;;;;;;;-7.63;72.82;97896.31;5026252;28;20045;-65
2022/03/08 02:02:09;;;;;;;28.42;12.85;;;;;;;-7.73;73.33;97904.94;5033896;28;20087;-65
2022/03/08 02:04:36;;;;;;;27.67;12.90;;;;;;;-7.67;73.96;97900.16;5047834;28;20492;-64
2022/03/08 02:07:04;;;;;;;18.90;10.52;;;;;;;-7.68;73.23;97899.28;5030008;28;20394;-64
2022/03/08 02:09:31;;;;;;;22.75;12.00;;;;;;;-7.70;73.11;97893.34;5008404;28;20046;-66
2022/03/08 02:11:58;;;;;;;18.20;8.88;;;;;;;-7.67;72.91;97893.06;5022480;28;20041;-65
2022/03/08 02:14:27;;;;;;;27.65;11.13;;;;;;;-7.69;73.07;97897.63;5025184;28;20045;-64
2022/03/08 02:16:53;;;;;;;25.90;12.32;;;;;;;-7.64;73.30;97886.72;5017763;28;20505;-63
2022/03/08 02:19:20;;;;;;;20.58;10.15;;;;;;;-7.58;72.90;97878.34;5006302;28;20069;-65
2022/03/08 02:21:50;;;;;;;23.35;10.98;;;;;;;-7.62;72.99;97879.56;5011880;28;20037;-64
2022/03/08 02:24:17;;;;;;;24.35;11.85;;;;;;;-7.48;72.07;97874.00;5026956;28;20049;-63
2022/03/08 02:26:45;;;;;;;24.75;10.40;;;;;;;-7.58;72.25;97870.47;5008183;28;20165;-63
2022/03/08 02:29:12;;;;;;;21.08;10.15;;;;;;;-7.85;73.07;97872.56;5005873;28;20089;-64
2022/03/08 02:31:39;;;;;;;26.63;12.32;;;;;;;-7.93;73.69;97874.13;5008838;28;20394;-63
2022/03/08 02:34:06;;;;;;;31.50;13.52;;;;;;;-7.91;74.14;97864.31;5006217;28;20076;-63
2022/03/08 02:36:32;;;;;;;21.52;10.82;;;;;;;-8.01;73.92;97861.59;5010505;28;20045;-63
2022/03/08 02:38:59;;;;;;;22.00;11.35;;;;;;;-7.91;73.91;97862.53;5021053;28;20045;-63
2022/03/08 02:41:26;;;;;;;19.40;10.40;;;;;;;-7.92;73.85;97866.13;5024663;28;20111;-65
2022/03/08 02:43:52;;;;;;;24.10;10.43;;;;;;;-7.92;73.44;97865.28;5023329;28;20037;-65
2022/03/08 02:46:19;;;;;;;19.83;10.45;;;;;;;-7.98;73.80;97862.19;5025256;28;20729;-62
2022/03/08 02:48:46;;;;;;;18.55;10.02;;;;;;;-8.06;73.99;97863.75;5025711;28;20468;-64
2022/03/08 02:51:13;;;;;;;19.75;10.27;;;;;;;-8.05;74.46;97855.75;5021955;28;20038;-65
2022/03/08 02:53:39;;;;;;;22.60;10.77;;;;;;;-8.02;73.87;97857.28;5025844;28;20033;-62
2022/03/08 02:56:06;;;;;;;20.90;10.20;;;;;;;-8.04;74.14;97860.03;5025034;28;20037;-63
2022/03/08 02:58:32;;;;;;;20.02;9.40;;;;;;;-8.11;74.07;97851.00;5024589;28;20056;-63
2022/03/08 03:00:59;;;;;;;22.88;10.88;;;;;;;-8.09;74.66;97859.56;5022094;28;20527;-64
2022/03/08 03:03:25;;;;;;;22.98;10.60;;;;;;;-8.05;74.22;97854.91;5011929;28;20109;-62
2022/03/08 03:05:52;;;;;;;22.50;10.95;;;;;;;-8.07;74.26;97856.81;5012482;28;20373;-67
2022/03/08 03:08:19;;;;;;;18.77;9.90;;;;;;;-8.28;74.18;97854.94;5024847;28;20053;-64
2022/03/08 03:10:45;;;;;;;19.90;10.10;;;;;;;-8.27;74.70;97846.94;5024018;28;20049;-64
2022/03/08 03:13:12;;;;;;;20.85;10.57;;;;;;;-8.25;74.92;97837.13;5025675;28;20052;-63
2022/03/08 03:15:38;;;;;;;21.00;10.68;;;;;;;-8.31;74.58;97837.63;5024545;28;20045;-62
2022/03/08 03:18:09;;;;;;;18.15;8.75;;;;;;;-8.34;75.23;97837.03;5025216;28;20061;-64
2022/03/08 03:20:37;;;;;;;24.35;11.30;;;;;;;-8.22;75.10;97833.44;5019454;28;20053;-64
2022/03/08 03:23:03;;;;;;;22.08;11.10;;;;;;;-8.27;75.01;97836.44;5017946;28;20050;-63
2022/03/08 03:25:30;;;;;;;25.70;11.13;;;;;;;-8.23;74.20;97835.22;5022692;28;20498;-62
2022/03/08 03:27:57;;;;;;;22.20;11.70;;;;;;;-8.29;74.37;97832.25;5025964;28;20053;-63
2022/03/08 03:30:23;;;;;;;20.02;10.60;;;;;;;-8.32;74.80;97825.44;5024667;28;20045;-65
2022/03/08 03:32:50;;;;;;;19.42;10.00;;;;;;;-8.42;74.84;97825.31;5016856;28;20041;-64
2022/03/08 03:35:17;;;;;;;20.83;11.18;;;;;;;-8.35;75.18;97830.94;5006524;28;20042;-64
2022/03/08 03:37:44;;;;;;;22.33;11.93;;;;;;;-8.35;75.34;97823.06;5019321;28;20038;-64
2022/03/08 03:40:12;;;;;;;17.95;8.90;;;;;;;-8.33;75.23;97822.94;5025187;28;20049;-64
2022/03/08 03:42:39;;;;;;;20.88;10.43;;;;;;;-8.32;75.17;97824.59;5016764;28;20049;-63
2022/03/08 03:45:07;;;;;;;22.92;10.48;;;;;;;-8.18;74.92;97818.25;5007521;28;20482;-65
2022/03/08 03:47:33;;;;;;;18.13;9.30;;;;;;;-8.14;74.47;97828.38;5025465;28;20069;-65
2022/03/08 03:50:00;;;;;;;20.55;9.88;;;;;;;-7.73;72.88;97825.22;5025850;28;20463;-63
2022/03/08 03:52:27;;;;;;;21.00;10.60;;;;;;;-8.02;73.18;97821.34;5023906;28;20041;-63
2022/03/08 03:54:53;;;;;;;16.77;10.55;;;;;;;-8.04;73.69;97817.16;5024472;28;20041;-63
2022/03/08 03:57:20;;;;;;;18.15;9.80;;;;;;;-8.10;74.14;97823.75;5024377;28;20099;-64
2022/03/08 03:59:46;;;;;;;20.38;9.82;;;;;;;-7.77;74.04;97815.91;5025247;28;20042;-63
2022/03/08 04:02:14;;;;;;;19.92;9.40;;;;;;;-8.01;73.50;97822.16;5018993;28;20628;-64
2022/03/08 04:04:41;;;;;;;17.35;8.80;;;;;;;-8.20;74.25;97821.00;5006016;28;20603;-65
2022/03/08 04:07:07;;;;;;;21.33;9.35;;;;;;;-8.27;74.59;97822.44;5008048;28;20030;-64
2022/03/08 04:09:34;;;;;;;18.20;9.10;;;;;;;-8.24;74.69;97822.19;5015080;28;20041;-62
2022/03/08 04:12:00;;;;;;;18.73;9.48;;;;;;;-8.28;75.15;97826.88;5021954;28;20045;-66
2022/03/08 04:14:27;;;;;;;18.48;10.95;;;;;;;-8.41;74.96;97815.66;5024811;28;20425;-64
2022/03/08 04:16:53;;;;;;;17.20;8.95;;;;;;;-8.52;75.71;97819.94;5021282;28;20038;-63
2022/03/08 04:19:22;;;;;;;19.35;9.55;;;;;;;-8.48;75.99;97818.75;5008147;28;20046;-61
2022/03/08 04:21:48;;;;;;;22.80;10.35;;;;;;;-8.46;75.61;97816.03;5024010;28;20702;-64
2022/03/08 04:24:15;;;;;;;21.00;9.05;;;;;;;-8.42;76.09;97827.97;5024651;28;20846;-63
2022/03/08 04:26:41;;;;;;;20.25;10.55;;;;;;;-8.46;75.76;97821.28;5012895;28;20044;-64
2022/03/08 04:29:08;;;;;;;24.25;11.85;;;;;;;-8.39;75.67;97819.00;5025030;28;20041;-63
2022/03/08 04:31:35;;;;;;;21.70;10.43;;;;;;;-8.48;76.00;97818.75;5032553;28;20044;-64
2022/03/08 04:34:02;;;;;;;18.55;9.75;;;;;;;-8.56;76.03;97813.31;5044845;28;20043;-62
2022/03/08 04:36:29;;;;;;;21.17;10.95;;;;;;;-8.43;75.80;97821.03;5023296;28;20034;-65
2022/03/08 04:38:55;;;;;;;19.38;10.43;;;;;;;-8.20;75.73;97825.41;5022156;28;20441;-64
2022/03/08 04:41:22;;;;;;;20.52;10.40;;;;;;;-8.14;74.40;97824.94;5008677;28;20045;-63
2022/03/08 04:43:49;;;;;;;17.30;8.32;;;;;;;-8.19;74.80;97820.03;5019883;28;20049;-64
2022/03/08 04:46:15;;;;;;;16.95;8.13;;;;;;;-8.23;75.09;97816.84;5026223;28;20076;-64
2022/03/08 04:48:42;;;;;;;14.70;8.30;;;;;;;-8.32;75.36;97817.56;5028020;28;20053;-63
2022/03/08 04:51:09;;;;;;;19.95;9.95;;;;;;;-8.37;75.71;97811.84;5026445;28;20050;-63
2022/03/08 04:53:35;;;;;;;20.13;9.35;;;;;;;-8.38;75.25;97811.00;5047164;28;20110;-65
2022/03/08 04:56:02;;;;;;;21.40;10.23;;;;;;;-8.51;75.53;97812.91;5035192;28;20049;-64
2022/03/08 04:58:30;;;;;;;18.63;9.07;;;;;;;-8.45;76.18;97822.13;5008536;28;20072;-64
2022/03/08 05:00:56;;;;;;;19.77;9.77;;;;;;;-8.49;75.96;97819.72;5027840;28;20099;-63
2022/03/08 05:03:23;;;;;;;17.90;9.85;;;;;;;-8.38;75.84;97816.25;5045960;28;20045;-64
2022/03/08 05:05:50;;;;;;;18.25;8.95;;;;;;;-8.39;75.34;97811.13;5042009;28;20032;-66
2022/03/08 05:08:16;;;;;;;17.23;9.68;;;;;;;-8.33;75.25;97817.69;5023445;28;20045;-63
2022/03/08 05:10:43;;;;;;;19.02;9.35;;;;;;;-8.40;75.74;97812.91;5023982;28;20045;-64
2022/03/08 05:13:09;;;;;;;18.77;9.45;;;;;;;-8.42;75.86;97813.97;5027933;28;20740;-65
2022/03/08 05:15:36;;;;;;;17.25;10.10;;;;;;;-8.39;75.60;97819.00;5024420;28;20095;-64
2022/03/08 05:18:03;;;;;;;16.75;10.05;;;;;;;-8.46;75.88;97818.66;5026590;28;20045;-63
2022/03/08 05:20:30;;;;;;;20.70;10.48;;;;;;;-8.53;76.00;97817.47;5015387;28;20046;-64
2022/03/08 05:23:00;;;;;;;15.55;8.55;;;;;;;-8.35;75.87;97820.44;5008173;28;20549;-64
2022/03/08 05:25:28;;;;;;;20.77;9.27;;;;;;;-8.33;75.44;97815.91;5007726;28;20464;-66
2022/03/08 05:27:55;;;;;;;20.45;9.23;;;;;;;-8.29;75.54;97817.31;5022419;28;20045;-65
2022/03/08 05:30:22;;;;;;;18.35;9.60;;;;;;;-8.27;75.79;97819.81;5016716;28;20065;-62
2022/03/08 05:32:48;;;;;;;17.83;9.32;;;;;;;-8.31;75.02;97816.59;5023790;28;20393;-62
2022/03/08 05:35:15;;;;;;;18.75;9.23;;;;;;;-8.31;75.45;97813.97;5026810;28;20529;-62
2022/03/08 05:37:42;;;;;;;17.08;8.80;;;;;;;-8.16;75.11;97814.56;5012756;28;20045;-64
2022/03/08 05:40:10;;;;;;;16.50;8.75;;;;;;;-8.07;74.44;97807.75;5008293;28;20054;-62
2022/03/08 05:42:39;;;;;;;18.85;9.70;;;;;;;-8.04;74.64;97809.28;5023939;28;20048;-65
2022/03/08 05:45:08;;;;;;;14.65;8.32;;;;;;;-8.07;74.64;97806.91;5021839;28;20041;-65
2022/03/08 05:47:36;;;;;;;21.88;9.63;;;;;;;-8.04;74.54;97804.84;5023925;28;20041;-64
2022/03/08 05:50:04;;;;;;;17.45;8.18;;;;;;;-7.93;73.95;97805.78;5025332;28;20132;-66
2022/03/08 05:52:31;;;;;;;19.52;9.40;;;;;;;-8.07;74.35;97802.47;5024927;28;20045;-62
2022/03/08 05:54:57;;;;;;;20.95;11.77;;;;;;;-8.28;75.13;97808.50;5021991;28;20037;-63
2022/03/08 05:57:24;;;;;;;24.60;10.95;;;;;;;-8.31;75.65;97813.13;5023095;28;20045;-64
2022/03/08 05:59:51;;;;;;;19.60;7.57;;;;;;;-8.31;76.04;97811.34;5022370;28;20053;-63
2022/03/08 06:02:19;;;;;;;28.27;9.15;;;;;;;-8.29;76.20;97808.59;5022091;28;20517;-63
2022/03/08 06:04:46;;;;;;;22.63;9.25;;;;;;;-8.23;75.12;97803.69;5024666;28;20072;-64
2022/03/08 06:07:12;;;;;;;19.77;9.73;;;;;;;-8.33;75.41;97810.66;5025224;28;20758;-64
2022/03/08 06:09:39;;;;;;;15.68;9.43;;;;;;;-8.35;75.53;97823.06;5023578;28;20045;-65
2022/03/08 06:12:06;;;;;;;17.10;8.07;;;;;;;-8.42;75.83;97824.47;5033538;28;20048;-63
2022/03/08 06:14:33;;;;;;;23.20;9.63;;;;;;;-8.46;76.24;97812.53;5019998;28;20060;-64
2022/03/08 06:16:59;;;;;;;18.75;9.63;;;;;;;-8.53;76.66;97820.94;5032421;28;20041;-62
2022/03/08 06:19:26;;;;;;;21.23;11.30;;;;;;;-8.37;76.04;97814.47;5021682;28;20156;-64
2022/03/08 06:21:52;;;;;;;14.85;8.20;;;;;;;-8.15;75.66;97821.47;5024184;28;20056;-65
2022/03/08 06:24:19;;;;;;;21.25;9.48;;;;;;;-8.23;75.46;97824.72;5021972;28;20054;-63
2022/03/08 06:26:45;;;;;;;20.45;8.95;;;;;;;-8.39;75.80;97834.75;5017736;28;20053;-63
2022/03/08 06:29:12;;;;;;;22.73;9.93;;;;;;;-8.25;76.76;97836.31;5018635;28;20046;-65
2022/03/08 06:31:39;;;;;;;20.75;9.32;;;;;;;-8.14;75.47;97838.09;5028615;28;20452;-65
2022/03/08 06:34:05;;;;;;;17.92;9.13;;;;;;;-8.18;75.63;97841.91;5022025;28;20120;-65
2022/03/08 06:36:34;;;;;;;19.20;9.55;;;;;;;-8.16;75.51;97839.97;5023783;28;20797;-63
2022/03/08 06:39:02;;;;;;;21.58;10.10;;;;;;;-8.04;76.10;97846.91;5006069;28;20053;-62
2022/03/08 06:41:29;;;;;;;18.73;9.95;;;;;;;-8.02;75.62;97849.41;5017799;28;20053;-67
2022/03/08 06:43:55;;;;;;;14.00;8.63;;;;;;;-7.97;75.69;97845.47;5012309;28;20497;-65
2022/03/08 06:46:22;;;;;;;18.58;10.07;;;;;;;-7.79;75.49;97855.47;5021681;28;20875;-63
2022/03/08 06:48:48;;;;;;;27.90;11.18;;;;;;;-7.63;75.24;97852.41;5023834;28;20055;-65
2022/03/08 06:51:15;;;;;;;19.17;10.23;;;;;;;-7.35;74.32;97852.81;5014240;28;20045;-66
2022/03/08 06:53:42;;;;;;;19.15;10.10;;;;;;;-7.30;73.81;97855.03;5021870;28;20063;-64
2022/03/08 06:56:08;;;;;;;21.52;10.77;;;;;;;-7.27;74.38;97865.31;5018968;28;20040;-65
2022/03/08 06:58:35;;;;;;;17.77;10.70;;;;;;;-7.15;74.37;97867.91;5020857;28;20053;-65
2022/03/08 07:01:01;;;;;;;17.88;8.48;;;;;;;-7.03;74.24;97866.06;5014335;28;20049;-64
2022/03/08 07:03:28;;;;;;;18.50;10.15;;;;;;;-6.98;74.43;97866.50;5035872;28;20447;-65
2022/03/08 07:05:55;;;;;;;17.73;8.90;;;;;;;-6.84;74.08;97868.81;5021251;28;20548;-64
2022/03/08 07:08:22;;;;;;;16.95;9.07;;;;;;;-6.67;73.42;97869.22;5030712;28;20048;-65
2022/03/08 07:10:50;;;;;;;17.92;9.02;;;;;;;-6.56;74.75;97860.41;5025180;28;20045;-64
2022/03/08 07:13:17;;;;;;;18.65;8.95;;;;;;;-6.36;73.36;97863.94;5025267;28;20124;-64
2022/03/08 07:15:44;;;;;;;22.52;10.13;;;;;;;-6.17;73.47;97863.19;5026492;28;20049;-64
2022/03/08 07:18:11;;;;;;;19.60;9.88;;;;;;;-6.04;72.14;97862.13;5007151;28;20042;-64
2022/03/08 07:20:37;;;;;;;18.73;9.35;;;;;;;-5.89;72.44;97862.56;5015484;28;20041;-63
2022/03/08 07:23:04;;;;;;;16.48;8.55;;;;;;;-5.71;71.82;97861.91;5025242;28;20038;-65
2022/03/08 07:25:30;;;;;;;16.42;9.15;;;;;;;-5.56;70.94;97857.91;5026010;28;20439;-63
2022/03/08 07:27:57;;;;;;;15.90;9.25;;;;;;;-5.37;71.14;97857.09;5009319;28;20030;-64
2022/03/08 07:30:43;;;;;;;17.33;8.43;;;;;;;-5.07;69.88;97856.22;5006449;28;20741;-63
2022/03/08 07:33:10;;;;;;;17.08;8.10;;;;;;;-4.79;67.78;97856.34;5013254;28;20599;-64
2022/03/08 07:35:37;;;;;;;16.42;10.23;;;;;;;-4.58;68.12;97854.34;5018414;28;20124;-54
2022/03/08 07:38:04;;;;;;;18.60;10.10;;;;;;;-3.95;65.62;97857.31;5020773;28;20099;-51
2022/03/08 07:40:30;;;;;;;16.00;9.48;;;;;;;-3.57;64.04;97851.09;5022755;28;20044;-53
2022/03/08 07:42:57;;;;;;;21.17;9.40;;;;;;;-3.44;63.52;97848.06;5020222;28;20048;-51
2022/03/08 07:45:24;;;;;;;24.60;9.80;;;;;;;-3.24;62.43;97859.38;5019273;28;20045;-56
2022/03/08 07:47:50;;;;;;;16.33;9.10;;;;;;;-2.82;59.43;97852.59;5017244;28;20045;-58
2022/03/08 07:50:17;;;;;;;15.38;8.88;;;;;;;-2.51;58.64;97854.78;5008920;28;20054;-53
2022/03/08 07:52:47;;;;;;;16.23;10.32;;;;;;;-2.31;58.43;97856.38;5026245;28;20091;-58
2022/03/08 07:55:13;;;;;;;14.73;9.25;;;;;;;-2.19;57.38;97852.47;5025643;28;20053;-63
2022/03/08 07:57:40;;;;;;;15.23;7.95;;;;;;;-2.06;57.88;97852.06;5017864;28;20046;-64
2022/03/08 08:00:28;;;;;;;12.07;6.53;;;;;;;-1.90;56.61;97856.59;5022086;28;20143;-66
2022/03/08 08:02:55;;;;;;;13.25;7.00;;;;;;;-1.77;56.40;97845.50;5018260;28;20077;-63
2022/03/08 08:05:22;;;;;;;19.55;8.90;;;;;;;-1.66;55.87;97846.22;5022419;28;20076;-65
2022/03/08 08:07:48;;;;;;;11.57;6.93;;;;;;;-1.56;55.51;97852.22;5012935;28;20406;-66
2022/03/08 08:10:15;;;;;;;12.73;7.65;;;;;;;-1.48;55.41;97862.00;5021679;28;20049;-65
2022/03/08 08:12:41;;;;;;;13.98;8.77;;;;;;;-1.36;54.89;97852.75;5018711;28;20048;-66
2022/03/08 08:15:08;;;;;;;20.10;6.93;;;;;;;-1.21;54.75;97852.94;5023996;28;20063;-65
2022/03/08 08:17:35;;;;;;;14.77;8.20;;;;;;;-1.03;53.74;97843.16;5025458;28;20038;-66
2022/03/08 08:20:03;;;;;;;16.88;7.93;;;;;;;-0.98;53.56;97844.31;5020595;28;20145;-65
2022/03/08 08:22:29;;;;;;;16.63;7.75;;;;;;;-0.95;53.18;97846.63;5018530;28;20056;-65
2022/03/08 08:24:56;;;;;;;16.48;7.85;;;;;;;-0.87;53.65;97850.28;5027068;28;20048;-64
2022/03/08 08:27:23;;;;;;;16.38;7.28;;;;;;;-0.78;53.54;97841.31;5028741;28;20551;-64
2022/03/08 08:29:49;;;;;;;13.75;6.90;;;;;;;-0.58;53.89;97840.97;5028035;28;20039;-64
2022/03/08 08:32:16;;;;;;;13.55;6.60;;;;;;;-0.55;52.89;97838.78;5041795;28;20068;-64
2022/03/08 08:34:43;;;;;;;19.00;7.43;;;;;;;-0.49;52.85;97837.28;5021313;28;20045;-64
2022/03/08 08:37:09;;;;;;;18.52;6.68;;;;;;;-0.37;52.56;97844.91;5022926;28;20045;-64
2022/03/08 08:39:36;;;;;;;15.88;6.97;;;;;;;-0.20;52.74;97841.22;5027880;28;20103;-64
2022/03/08 08:42:03;;;;;;;12.80;6.97;;;;;;;-0.14;52.51;97850.34;5025112;28;20045;-64
2022/03/08 08:44:35;;;;;;;11.02;6.25;;;;;;;-0.08;52.00;97852.31;5020582;28;20117;-64
2022/03/08 08:47:02;;;;;;;12.95;7.32;;;;;;;-0.05;52.07;97838.66;5020268;28;20080;-64
2022/03/08 08:49:29;;;;;;;16.40;7.55;;;;;;;0.06;51.76;97828.63;5031736;28;20103;-64
2022/03/08 08:52:02;;;;;;;15.85;7.03;;;;;;;0.19;51.86;97834.22;5019780;28;20124;-64
2022/03/08 08:54:28;;;;;;;13.43;8.68;;;;;;;0.29;51.44;97834.00;5018452;28;20053;-64
2022/03/08 08:56:55;;;;;;;12.18;8.07;;;;;;;0.36;51.28;97839.47;5016064;28;20044;-65
2022/03/08 08:59:22;;;;;;;13.57;7.82;;;;;;;0.48;51.51;97829.28;5014119;28;20053;-65
2022/03/08 09:01:48;;;;;;;14.18;7.00;;;;;;;0.57;51.34;97830.03;5040107;28;20036;-67
2022/03/08 09:04:15;;;;;;;13.70;7.75;;;;;;;0.63;50.97;97832.81;5009089;28;20054;-63
2022/03/08 09:06:42;;;;;;;12.68;7.20;;;;;;;0.73;50.86;97829.09;5008931;28;20045;-66
2022/03/08 09:09:09;;;;;;;11.57;5.88;;;;;;;0.92;50.13;97824.31;5024521;28;20060;-65
2022/03/08 09:11:36;;;;;;;10.48;6.43;;;;;;;1.01;49.38;97823.22;5035406;28;20049;-64
2022/03/08 09:14:04;;;;;;;10.45;5.88;;;;;;;1.19;48.80;97833.59;5037419;28;20066;-64
2022/03/08 09:16:31;;;;;;;10.55;5.80;;;;;;;1.29;48.05;97836.00;5027843;28;20209;-64
2022/03/08 09:18:58;;;;;;;9.35;6.05;;;;;;;1.38;46.93;97821.56;5012515;28;20057;-63
2022/03/08 09:21:24;;;;;;;8.50;5.70;;;;;;;1.47;47.68;97832.19;5025537;28;20112;-64
2022/03/08 09:23:51;;;;;;;9.57;5.57;;;;;;;1.56;47.68;97821.22;5023586;28;20832;-64
2022/03/08 09:26:17;;;;;;;8.65;5.55;;;;;;;1.69;46.82;97828.59;5016839;28;20042;-63
2022/03/08 09:28:44;;;;;;;11.38;6.15;;;;;;;1.77;46.26;97817.00;5007768;28;20058;-63
2022/03/08 09:31:12;;;;;;;11.05;5.20;;;;;;;1.78;46.28;97817.81;5026700;28;20041;-64
2022/03/08 09:33:40;;;;;;;11.80;5.93;;;;;;;1.86;46.16;97816.91;5023079;28;20493;-64
2022/03/08 09:36:06;;;;;;;9.70;5.63;;;;;;;1.95;46.03;97819.28;5032296;28;20688;-67
2022/03/08 09:38:33;;;;;;;8.35;5.28;;;;;;;1.97;45.57;97811.09;5029295;28;20037;-64
2022/03/08 09:41:02;;;;;;;8.50;5.75;;;;;;;2.05;45.41;97807.50;5015278;28;20037;-63
2022/03/08 09:43:31;;;;;;;8.20;4.70;;;;;;;2.23;45.28;97808.94;5019855;28;20055;-64
2022/03/08 09:45:57;;;;;;;10.02;5.35;;;;;;;2.35;45.17;97818.13;5019145;28;20054;-64
2022/03/08 09:48:24;;;;;;;8.98;5.57;;;;;;;2.47;45.04;97815.81;5020655;28;20057;-65
2022/03/08 09:50:50;;;;;;;8.30;5.35;;;;;;;2.44;44.45;97800.94;5023193;28;20076;-64
2022/03/08 09:53:18;;;;;;;8.90;5.03;;;;;;;2.43;44.66;97811.84;5026258;28;20056;-63
2022/03/08 09:55:45;;;;;;;9.02;5.20;;;;;;;2.59;44.60;97810.78;5022067;28;20037;-65
2022/03/08 09:58:12;;;;;;;7.63;5.43;;;;;;;2.70;44.37;97802.25;5021914;28;20544;-66
2022/03/08 10:00:38;;;;;;;8.13;5.05;;;;;;;2.77;43.97;97810.38;5026235;28;20929;-65
2022/03/08 10:03:11;;;;;;;8.70;4.45;;;;;;;2.81;43.46;97808.13;5025812;28;20056;-65
2022/03/08 10:05:43;;;;;;;9.80;5.68;;;;;;;2.95;43.52;97806.41;5009839;28;20046;-66
2022/03/08 10:08:18;;;;;;;7.55;4.25;;;;;;;3.07;42.69;97810.22;5015798;28;20591;-66
2022/03/08 10:10:53;;;;;;;7.88;4.80;;;;;;;3.21;42.33;97803.09;5027877;28;20045;-67
2022/03/08 10:13:24;;;;;;;7.72;4.60;;;;;;;3.18;42.33;97800.84;5023467;28;20128;-65
2022/03/08 10:16:03;;;;;;;8.48;4.38;;;;;;;3.14;41.79;97796.91;5017908;28;20046;-64
2022/03/08 10:18:35;;;;;;;8.98;4.57;;;;;;;3.22;41.38;97793.25;5025049;28;20052;-64
2022/03/08 10:21:03;;;;;;;7.43;4.32;;;;;;;3.33;41.00;97791.88;5027148;28;20053;-65
2022/03/08 10:23:40;;;;;;;13.43;5.00;;;;;;;3.36;41.21;97788.81;5029093;28;20045;-65
2022/03/08 10:26:10;;;;;;;9.23;4.57;;;;;;;3.44;41.47;97788.69;5012961;28;20045;-64
2022/03/08 10:28:46;;;;;;;9.43;5.03;;;;;;;3.42;41.64;97780.00;5017854;28;20037;-65
2022/03/08 10:31:14;;;;;;;8.43;5.28;;;;;;;3.46;40.74;97775.91;5022441;28;20056;-64
2022/03/08 10:33:41;;;;;;;9.02;4.97;;;;;;;3.57;41.52;97765.69;5018506;28;20382;-64
2022/03/08 10:36:15;;;;;;;7.55;4.45;;;;;;;3.60;40.40;97765.28;5019602;28;20049;-64
2022/03/08 10:39:13;;;;;;;8.13;5.10;;;;;;;3.58;40.07;97762.78;5019058;28;20061;-66
2022/03/08 10:41:48;;;;;;;9.40;4.28;;;;;;;3.80;40.07;97764.56;5018630;28;20057;-67
2022/03/08 10:44:29;;;;;;;10.23;4.43;;;;;;;3.79;39.41;97765.59;5013568;28;20053;-65
2022/03/08 10:47:04;;;;;;;6.65;3.90;;;;;;;3.76;39.05;97766.81;5023299;28;20504;-65
2022/03/08 10:49:32;;;;;;;8.45;4.63;;;;;;;3.61;38.65;97759.72;5017826;28;20045;-64
2022/03/08 10:52:01;;;;;;;7.68;4.47;;;;;;;3.75;39.04;97766.00;5016454;28;20045;-65
2022/03/08 10:54:29;;;;;;;9.35;4.20;;;;;;;3.84;38.88;97763.97;5037745;28;20497;-65
2022/03/08 10:56:57;;;;;;;7.78;4.50;;;;;;;3.94;38.67;97760.09;5010176;28;20189;-65
2022/03/08 10:59:23;;;;;;;7.82;4.30;;;;;;;4.08;38.46;97763.66;5018518;28;20103;-65
2022/03/08 11:01:50;;;;;;;9.32;4.95;;;;;;;4.15;38.04;97753.78;5015849;28;20037;-66
2022/03/08 11:04:20;;;;;;;6.88;4.55;;;;;;;4.16;37.32;97760.78;5012027;28;20589;-67
2022/03/08 11:06:51;;;;;;;14.15;3.75;;;;;;;4.21;36.97;97762.88;5033743;28;20052;-65
2022/03/08 11:09:18;;;;;;;7.33;4.03;;;;;;;4.25;36.72;97751.56;5028075;28;20559;-66
2022/03/08 11:11:45;;;;;;;5.97;3.22;;;;;;;4.31;35.87;97743.75;5031172;28;20103;-65
2022/03/08 11:14:14;;;;;;;9.80;4.00;;;;;;;4.37;35.94;97751.81;5018325;28;20729;-67
2022/03/08 11:16:40;;;;;;;9.77;4.20;;;;;;;4.31;35.95;97744.53;5031566;28;20044;-66
2022/03/08 11:19:10;;;;;;;9.75;4.82;;;;;;;4.41;36.50;97749.53;5021835;28;20045;-65
2022/03/08 11:21:37;;;;;;;7.68;3.72;;;;;;;4.47;36.66;97740.69;5027079;28;20037;-65
2022/03/08 11:24:04;;;;;;;6.68;3.80;;;;;;;4.58;35.20;97743.78;5013960;28;20045;-66
2022/03/08 11:26:32;;;;;;;9.23;4.20;;;;;;;4.66;35.40;97743.59;5031271;28;20041;-65
2022/03/08 11:28:59;;;;;;;8.43;4.10;;;;;;;4.60;35.04;97733.69;5040896;28;20045;-66